sensor_id;sensor_type;location;lat;lon;timestamp;pressure;altitude;pressure_sealevel;temperature;humidity
48035;BME280;33812;46.480;6.834;2023-05-12T00:01:24;93303.25;;;21.18;39.31
48035;BME280;33812;46.480;6.834;2023-05-12T00:05:26;93293.72;;;21.19;39.40
48035;BME280;33812;46.480;6.834;2023-05-12T00:09:28;93304.31;;;21.21;39.09
48035;BME280;33812;46.480;6.834;2023-05-12T00:13:34;93299.25;;;21.19;39.33
48035;BME280;33812;46.480;6.834;2023-05-12T00:17:36;93290.06;;;21.00;38.82
48035;BME280;33812;46.480;6.834;2023-05-12T00:21:39;93293.47;;;21.04;38.21
48035;BME280;33812;46.480;6.834;2023-05-12T00:25:42;93292.06;;;20.99;38.32
48035;BME280;33812;46.480;6.834;2023-05-12T00:29:45;93278.50;;;20.79;38.17
48035;BME280;33812;46.480;6.834;2023-05-12T00:33:47;93280.19;;;20.76;38.76
48035;BME280;33812;46.480;6.834;2023-05-12T00:37:50;93277.34;;;21.02;39.33
48035;BME280;33812;46.480;6.834;2023-05-12T00:41:54;93271.78;;;20.80;38.65
48035;BME280;33812;46.480;6.834;2023-05-12T00:46:04;93266.94;;;20.49;38.86
48035;BME280;33812;46.480;6.834;2023-05-12T00:50:09;93268.66;;;20.56;39.19
48035;BME280;33812;46.480;6.834;2023-05-12T00:54:11;93259.84;;;20.48;39.14
48035;BME280;33812;46.480;6.834;2023-05-12T00:58:13;93268.91;;;20.48;39.19
48035;BME280;33812;46.480;6.834;2023-05-12T01:02:16;93265.53;;;20.66;39.04
48035;BME280;33812;46.480;6.834;2023-05-12T01:24:53;93249.13;;;20.85;39.23
48035;BME280;33812;46.480;6.834;2023-05-12T01:28:57;93257.91;;;20.93;39.34
48035;BME280;33812;46.480;6.834;2023-05-12T01:33:02;93251.31;;;20.90;39.27
48035;BME280;33812;46.480;6.834;2023-05-12T01:37:04;93247.56;;;20.84;39.11
48035;BME280;33812;46.480;6.834;2023-05-12T01:41:06;93250.38;;;20.49;39.17
48035;BME280;33812;46.480;6.834;2023-05-12T01:45:10;93250.31;;;20.62;38.79
48035;BME280;33812;46.480;6.834;2023-05-12T01:49:12;93258.94;;;20.51;39.19
48035;BME280;33812;46.480;6.834;2023-05-12T01:53:14;93247.47;;;20.52;39.51
48035;BME280;33812;46.480;6.834;2023-05-12T01:57:15;93257.00;;;20.38;39.83
48035;BME280;33812;46.480;6.834;2023-05-12T02:01:18;93254.66;;;20.85;39.59
48035;BME280;33812;46.480;6.834;2023-05-12T02:05:20;93247.38;;;20.43;39.24
48035;BME280;33812;46.480;6.834;2023-05-12T02:09:22;93249.34;;;20.56;39.47
48035;BME280;33812;46.480;6.834;2023-05-12T02:13:24;93243.44;;;20.31;39.77
48035;BME280;33812;46.480;6.834;2023-05-12T02:17:27;93245.44;;;20.31;39.94
48035;BME280;33812;46.480;6.834;2023-05-12T02:21:32;93241.81;;;20.56;39.71
48035;BME280;33812;46.480;6.834;2023-05-12T02:25:33;93235.09;;;20.57;39.68
48035;BME280;33812;46.480;6.834;2023-05-12T02:29:36;93245.09;;;20.41;39.63
48035;BME280;33812;46.480;6.834;2023-05-12T02:33:39;93237.75;;;20.48;39.83
48035;BME280;33812;46.480;6.834;2023-05-12T02:37:41;93244.13;;;20.22;39.51
48035;BME280;33812;46.480;6.834;2023-05-12T02:41:43;93239.94;;;20.53;39.65
48035;BME280;33812;46.480;6.834;2023-05-12T02:45:46;93247.91;;;20.51;39.51
48035;BME280;33812;46.480;6.834;2023-05-12T02:49:49;93242.88;;;20.36;39.95
48035;BME280;33812;46.480;6.834;2023-05-12T02:53:51;93237.59;;;20.29;39.95
48035;BME280;33812;46.480;6.834;2023-05-12T02:57:52;93243.25;;;20.25;39.79
48035;BME280;33812;46.480;6.834;2023-05-12T03:01:55;93241.09;;;20.42;39.91
48035;BME280;33812;46.480;6.834;2023-05-12T03:05:58;93230.16;;;20.39;40.23
48035;BME280;33812;46.480;6.834;2023-05-12T03:10:00;93228.59;;;20.51;39.89
48035;BME280;33812;46.480;6.834;2023-05-12T03:14:03;93231.06;;;20.36;39.87
48035;BME280;33812;46.480;6.834;2023-05-12T03:18:05;93219.53;;;20.15;40.01
48035;BME280;33812;46.480;6.834;2023-05-12T03:22:08;93221.97;;;20.48;40.33
48035;BME280;33812;46.480;6.834;2023-05-12T03:26:13;93213.38;;;20.46;40.04
48035;BME280;33812;46.480;6.834;2023-05-12T03:30:15;93217.06;;;20.30;40.57
48035;BME280;33812;46.480;6.834;2023-05-12T03:34:16;93217.34;;;20.10;40.49
48035;BME280;33812;46.480;6.834;2023-05-12T03:38:19;93213.16;;;19.79;40.71
48035;BME280;33812;46.480;6.834;2023-05-12T03:42:21;93211.13;;;20.19;40.29
48035;BME280;33812;46.480;6.834;2023-05-12T03:46:23;93214.97;;;20.21;40.61
48035;BME280;33812;46.480;6.834;2023-05-12T03:50:25;93214.56;;;19.97;40.52
48035;BME280;33812;46.480;6.834;2023-05-12T03:54:29;93216.09;;;20.24;40.18
48035;BME280;33812;46.480;6.834;2023-05-12T03:58:34;93208.03;;;20.03;40.65
48035;BME280;33812;46.480;6.834;2023-05-12T04:02:39;93216.13;;;19.85;40.27
48035;BME280;33812;46.480;6.834;2023-05-12T04:06:41;93210.47;;;20.14;40.23
48035;BME280;33812;46.480;6.834;2023-05-12T04:10:44;93213.56;;;20.16;40.16
48035;BME280;33812;46.480;6.834;2023-05-12T04:14:45;93203.81;;;20.38;39.94
48035;BME280;33812;46.480;6.834;2023-05-12T04:18:47;93207.13;;;20.33;40.14
48035;BME280;33812;46.480;6.834;2023-05-12T04:22:49;93204.72;;;20.22;40.02
48035;BME280;33812;46.480;6.834;2023-05-12T04:26:53;93206.81;;;20.17;39.39
48035;BME280;33812;46.480;6.834;2023-05-12T04:30:55;93206.81;;;20.17;40.12
48035;BME280;33812;46.480;6.834;2023-05-12T04:34:57;93204.88;;;20.05;40.28
48035;BME280;33812;46.480;6.834;2023-05-12T04:39:00;93202.53;;;20.16;40.35
48035;BME280;33812;46.480;6.834;2023-05-12T04:43:03;93207.03;;;20.23;39.88
48035;BME280;33812;46.480;6.834;2023-05-12T04:47:06;93213.66;;;20.26;39.26
48035;BME280;33812;46.480;6.834;2023-05-12T04:51:08;93212.44;;;20.27;40.14
48035;BME280;33812;46.480;6.834;2023-05-12T04:55:10;93213.72;;;20.35;39.81
48035;BME280;33812;46.480;6.834;2023-05-12T04:59:13;93216.09;;;20.11;39.92
48035;BME280;33812;46.480;6.834;2023-05-12T05:03:15;93215.41;;;20.33;39.45
48035;BME280;33812;46.480;6.834;2023-05-12T05:07:17;93209.72;;;20.49;39.94
48035;BME280;33812;46.480;6.834;2023-05-12T05:11:19;93213.91;;;20.05;40.33
48035;BME280;33812;46.480;6.834;2023-05-12T05:15:23;93218.53;;;20.09;39.99
48035;BME280;33812;46.480;6.834;2023-05-12T05:19:25;93217.75;;;20.21;40.52
48035;BME280;33812;46.480;6.834;2023-05-12T05:23:26;93211.16;;;20.05;41.10
48035;BME280;33812;46.480;6.834;2023-05-12T05:27:28;93223.72;;;19.93;41.19
48035;BME280;33812;46.480;6.834;2023-05-12T05:31:32;93223.19;;;19.86;41.69
48035;BME280;33812;46.480;6.834;2023-05-12T05:35:34;93222.72;;;20.00;41.54
48035;BME280;33812;46.480;6.834;2023-05-12T05:39:36;93228.25;;;20.13;41.44
48035;BME280;33812;46.480;6.834;2023-05-12T05:43:38;93221.63;;;19.98;41.43
48035;BME280;33812;46.480;6.834;2023-05-12T05:47:41;93232.03;;;20.07;41.49
48035;BME280;33812;46.480;6.834;2023-05-12T05:51:43;93231.19;;;20.32;41.92
48035;BME280;33812;46.480;6.834;2023-05-12T05:55:58;93226.69;;;20.61;40.36
48035;BME280;33812;46.480;6.834;2023-05-12T06:00:01;93236.59;;;20.36;41.30
48035;BME280;33812;46.480;6.834;2023-05-12T06:04:10;93233.41;;;20.60;41.21
48035;BME280;33812;46.480;6.834;2023-05-12T06:08:29;93232.34;;;20.57;40.87
48035;BME280;33812;46.480;6.834;2023-05-12T06:12:33;93234.28;;;20.34;41.25
48035;BME280;33812;46.480;6.834;2023-05-12T06:16:35;93237.16;;;20.31;41.18
48035;BME280;33812;46.480;6.834;2023-05-12T06:20:38;93229.56;;;20.22;41.82
48035;BME280;33812;46.480;6.834;2023-05-12T06:24:40;93245.53;;;20.27;41.63
48035;BME280;33812;46.480;6.834;2023-05-12T06:28:42;93239.22;;;20.39;41.80
48035;BME280;33812;46.480;6.834;2023-05-12T06:32:43;93236.50;;;20.62;41.57
48035;BME280;33812;46.480;6.834;2023-05-12T06:36:48;93254.09;;;20.55;41.87
48035;BME280;33812;46.480;6.834;2023-05-12T06:40:49;93252.03;;;20.69;41.62
48035;BME280;33812;46.480;6.834;2023-05-12T06:44:51;93249.47;;;20.52;41.82
48035;BME280;33812;46.480;6.834;2023-05-12T06:48:53;93259.28;;;20.53;42.09
48035;BME280;33812;46.480;6.834;2023-05-12T06:52:57;93253.31;;;20.54;41.93
48035;BME280;33812;46.480;6.834;2023-05-12T06:56:58;93254.03;;;20.33;42.45
48035;BME280;33812;46.480;6.834;2023-05-12T07:01:00;93252.91;;;20.43;42.08
48035;BME280;33812;46.480;6.834;2023-05-12T07:05:02;93263.44;;;20.58;41.65
48035;BME280;33812;46.480;6.834;2023-05-12T07:09:05;93262.72;;;20.44;42.07
48035;BME280;33812;46.480;6.834;2023-05-12T07:13:06;93256.44;;;20.44;42.03
48035;BME280;33812;46.480;6.834;2023-05-12T07:17:08;93255.59;;;20.69;41.80
48035;BME280;33812;46.480;6.834;2023-05-12T07:21:10;93251.28;;;20.68;41.36
48035;BME280;33812;46.480;6.834;2023-05-12T07:25:14;93254.34;;;20.70;41.27
48035;BME280;33812;46.480;6.834;2023-05-12T07:29:16;93255.53;;;20.82;41.17
48035;BME280;33812;46.480;6.834;2023-05-12T07:33:18;93259.38;;;20.85;41.39
48035;BME280;33812;46.480;6.834;2023-05-12T07:37:20;93254.06;;;20.68;41.29
48035;BME280;33812;46.480;6.834;2023-05-12T07:41:24;93258.91;;;20.64;41.38
48035;BME280;33812;46.480;6.834;2023-05-12T07:45:26;93247.63;;;20.71;41.21
48035;BME280;33812;46.480;6.834;2023-05-12T07:49:28;93248.44;;;20.94;41.55
48035;BME280;33812;46.480;6.834;2023-05-12T07:53:30;93249.75;;;20.89;40.69
48035;BME280;33812;46.480;6.834;2023-05-12T07:57:33;93251.00;;;21.11;41.42
48035;BME280;33812;46.480;6.834;2023-05-12T08:01:35;93243.84;;;20.78;41.11
48035;BME280;33812;46.480;6.834;2023-05-12T08:05:36;93242.69;;;20.66;40.98
48035;BME280;33812;46.480;6.834;2023-05-12T08:09:38;93243.72;;;20.82;41.33
48035;BME280;33812;46.480;6.834;2023-05-12T08:13:41;93242.00;;;20.97;40.87
48035;BME280;33812;46.480;6.834;2023-05-12T08:17:43;93234.19;;;20.83;41.13
48035;BME280;33812;46.480;6.834;2023-05-12T08:21:44;93235.13;;;21.02;40.66
48035;BME280;33812;46.480;6.834;2023-05-12T08:25:46;93236.94;;;20.96;40.73
48035;BME280;33812;46.480;6.834;2023-05-12T08:29:50;93240.84;;;21.08;40.85
48035;BME280;33812;46.480;6.834;2023-05-12T08:33:52;93239.63;;;21.09;40.21
48035;BME280;33812;46.480;6.834;2023-05-12T08:37:55;93241.13;;;21.00;40.72
48035;BME280;33812;46.480;6.834;2023-05-12T08:42:06;93241.81;;;21.14;40.27
48035;BME280;33812;46.480;6.834;2023-05-12T08:46:14;93241.19;;;21.10;40.42
48035;BME280;33812;46.480;6.834;2023-05-12T08:50:17;93248.31;;;21.20;41.04
48035;BME280;33812;46.480;6.834;2023-05-12T08:54:22;93243.63;;;21.08;40.33
48035;BME280;33812;46.480;6.834;2023-05-12T08:58:27;93232.47;;;21.21;40.52
48035;BME280;33812;46.480;6.834;2023-05-12T09:02:31;93237.28;;;21.30;40.50
48035;BME280;33812;46.480;6.834;2023-05-12T09:06:37;93231.41;;;21.18;39.83
48035;BME280;33812;46.480;6.834;2023-05-12T09:10:40;93233.38;;;21.18;41.64
48035;BME280;33812;46.480;6.834;2023-05-12T09:14:44;93236.03;;;21.21;40.97
48035;BME280;33812;46.480;6.834;2023-05-12T09:18:49;93240.13;;;21.39;40.90
48035;BME280;33812;46.480;6.834;2023-05-12T09:22:53;93229.84;;;21.40;41.46
48035;BME280;33812;46.480;6.834;2023-05-12T09:26:55;93232.09;;;21.32;40.31
48035;BME280;33812;46.480;6.834;2023-05-12T09:30:57;93230.56;;;21.31;40.46
48035;BME280;33812;46.480;6.834;2023-05-12T09:35:02;93228.16;;;21.42;41.44
48035;BME280;33812;46.480;6.834;2023-05-12T09:39:07;93219.41;;;21.44;40.98
48035;BME280;33812;46.480;6.834;2023-05-12T09:43:09;93208.78;;;21.42;40.83
48035;BME280;33812;46.480;6.834;2023-05-12T09:47:11;93213.88;;;21.44;41.14
48035;BME280;33812;46.480;6.834;2023-05-12T09:51:16;93221.56;;;21.49;39.89
48035;BME280;33812;46.480;6.834;2023-05-12T09:55:19;93213.88;;;21.44;39.22
48035;BME280;33812;46.480;6.834;2023-05-12T09:59:21;93211.59;;;21.52;39.63
48035;BME280;33812;46.480;6.834;2023-05-12T10:03:28;93216.81;;;21.49;39.30
48035;BME280;33812;46.480;6.834;2023-05-12T10:07:32;93209.31;;;21.50;39.89
48035;BME280;33812;46.480;6.834;2023-05-12T10:11:35;93204.53;;;21.50;39.88
48035;BME280;33812;46.480;6.834;2023-05-12T10:15:37;93214.66;;;21.44;40.01
48035;BME280;33812;46.480;6.834;2023-05-12T10:19:40;93217.41;;;21.44;39.14
48035;BME280;33812;46.480;6.834;2023-05-12T10:23:44;93218.19;;;21.45;39.11
48035;BME280;33812;46.480;6.834;2023-05-12T10:27:47;93219.25;;;21.47;39.55
48035;BME280;33812;46.480;6.834;2023-05-12T10:31:50;93206.69;;;21.56;39.03
48035;BME280;33812;46.480;6.834;2023-05-12T10:35:52;93206.41;;;21.54;39.57
48035;BME280;33812;46.480;6.834;2023-05-12T10:39:55;93202.72;;;21.57;39.27
48035;BME280;33812;46.480;6.834;2023-05-12T10:44:00;93195.34;;;21.54;39.28
48035;BME280;33812;46.480;6.834;2023-05-12T10:48:06;93199.19;;;21.56;38.81
48035;BME280;33812;46.480;6.834;2023-05-12T10:52:10;93192.72;;;21.59;38.05
48035;BME280;33812;46.480;6.834;2023-05-12T10:56:20;93190.44;;;21.58;38.85
48035;BME280;33812;46.480;6.834;2023-05-12T11:00:25;93188.13;;;21.56;39.13
48035;BME280;33812;46.480;6.834;2023-05-12T11:04:40;93187.66;;;21.58;39.39
48035;BME280;33812;46.480;6.834;2023-05-12T11:08:42;93194.44;;;21.57;38.78
48035;BME280;33812;46.480;6.834;2023-05-12T11:12:45;93188.16;;;21.66;39.14
48035;BME280;33812;46.480;6.834;2023-05-12T11:16:47;93198.00;;;21.67;39.38
48035;BME280;33812;46.480;6.834;2023-05-12T11:20:49;93204.56;;;21.60;38.40
48035;BME280;33812;46.480;6.834;2023-05-12T11:24:51;93190.75;;;21.60;38.65
48035;BME280;33812;46.480;6.834;2023-05-12T11:28:55;93187.53;;;21.61;38.54
48035;BME280;33812;46.480;6.834;2023-05-12T11:33:01;93185.06;;;21.64;38.79
48035;BME280;33812;46.480;6.834;2023-05-12T11:37:03;93172.78;;;21.65;38.99
48035;BME280;33812;46.480;6.834;2023-05-12T11:41:05;93179.88;;;21.66;38.68
48035;BME280;33812;46.480;6.834;2023-05-12T11:45:22;93167.72;;;21.63;37.99
48035;BME280;33812;46.480;6.834;2023-05-12T11:49:25;93172.03;;;21.64;38.65
48035;BME280;33812;46.480;6.834;2023-05-12T11:53:28;93179.88;;;21.66;38.28
48035;BME280;33812;46.480;6.834;2023-05-12T11:57:31;93178.31;;;21.65;37.67
48035;BME280;33812;46.480;6.834;2023-05-12T12:01:43;93168.03;;;21.65;38.03
48035;BME280;33812;46.480;6.834;2023-05-12T12:05:57;93177.56;;;21.64;37.48
48035;BME280;33812;46.480;6.834;2023-05-12T12:10:09;93177.09;;;21.66;37.04
48035;BME280;33812;46.480;6.834;2023-05-12T12:14:12;93171.59;;;21.75;38.05
48035;BME280;33812;46.480;6.834;2023-05-12T12:18:15;93179.75;;;21.79;38.22
48035;BME280;33812;46.480;6.834;2023-05-12T12:22:18;93177.19;;;21.84;37.94
48035;BME280;33812;46.480;6.834;2023-05-12T12:26:19;93178.28;;;21.87;37.77
48035;BME280;33812;46.480;6.834;2023-05-12T12:30:22;93189.34;;;21.87;37.72
48035;BME280;33812;46.480;6.834;2023-05-12T12:34:25;93173.63;;;21.84;37.24
48035;BME280;33812;46.480;6.834;2023-05-12T12:38:27;93179.16;;;21.84;37.19
48035;BME280;33812;46.480;6.834;2023-05-12T12:42:28;93188.56;;;21.86;37.65
48035;BME280;33812;46.480;6.834;2023-05-12T12:46:30;93184.97;;;21.77;37.20
48035;BME280;33812;46.480;6.834;2023-05-12T12:50:34;93182.34;;;21.73;36.97
48035;BME280;33812;46.480;6.834;2023-05-12T12:54:35;93177.88;;;21.76;38.07
48035;BME280;33812;46.480;6.834;2023-05-12T12:58:37;93177.28;;;21.71;38.21
48035;BME280;33812;46.480;6.834;2023-05-12T13:02:39;93183.31;;;21.79;37.88
48035;BME280;33812;46.480;6.834;2023-05-12T13:06:42;93183.88;;;21.74;38.27
48035;BME280;33812;46.480;6.834;2023-05-12T13:10:44;93180.41;;;21.83;40.23
48035;BME280;33812;46.480;6.834;2023-05-12T13:14:46;93172.34;;;21.76;39.95
48035;BME280;33812;46.480;6.834;2023-05-12T13:18:48;93159.78;;;21.74;40.50
48035;BME280;33812;46.480;6.834;2023-05-12T13:22:51;93161.28;;;21.66;40.44
48035;BME280;33812;46.480;6.834;2023-05-12T13:26:53;93160.00;;;21.58;41.63
48035;BME280;33812;46.480;6.834;2023-05-12T13:30:54;93161.56;;;21.59;41.05
48035;BME280;33812;46.480;6.834;2023-05-12T13:34:56;93157.53;;;21.50;42.19
48035;BME280;33812;46.480;6.834;2023-05-12T13:39:01;93148.63;;;21.56;41.06
48035;BME280;33812;46.480;6.834;2023-05-12T13:43:04;93146.81;;;21.62;41.03
48035;BME280;33812;46.480;6.834;2023-05-12T13:47:05;93141.94;;;21.76;40.26
48035;BME280;33812;46.480;6.834;2023-05-12T13:51:07;93135.47;;;21.79;40.16
48035;BME280;33812;46.480;6.834;2023-05-12T13:55:10;93136.63;;;21.91;39.74
48035;BME280;33812;46.480;6.834;2023-05-12T13:59:12;93128.16;;;21.94;40.02
48035;BME280;33812;46.480;6.834;2023-05-12T14:03:14;93121.72;;;21.97;40.20
48035;BME280;33812;46.480;6.834;2023-05-12T14:07:15;93118.50;;;21.99;39.35
48035;BME280;33812;46.480;6.834;2023-05-12T14:11:19;93123.28;;;22.08;40.22
48035;BME280;33812;46.480;6.834;2023-05-12T14:15:21;93121.25;;;22.08;40.50
48035;BME280;33812;46.480;6.834;2023-05-12T14:19:22;93115.56;;;22.12;40.51
48035;BME280;33812;46.480;6.834;2023-05-12T14:23:24;93122.66;;;22.13;40.43
48035;BME280;33812;46.480;6.834;2023-05-12T14:27:27;93127.41;;;22.13;40.52
48035;BME280;33812;46.480;6.834;2023-05-12T14:31:29;93127.88;;;22.11;39.48
48035;BME280;33812;46.480;6.834;2023-05-12T14:35:31;93148.78;;;22.12;39.27
48035;BME280;33812;46.480;6.834;2023-05-12T14:39:32;93147.25;;;22.11;39.71
48035;BME280;33812;46.480;6.834;2023-05-12T14:43:36;93134.50;;;22.04;41.10
48035;BME280;33812;46.480;6.834;2023-05-12T14:47:38;93141.88;;;22.07;40.52
48035;BME280;33812;46.480;6.834;2023-05-12T14:51:40;93137.56;;;22.06;40.60
48035;BME280;33812;46.480;6.834;2023-05-12T14:55:42;93134.19;;;22.02;39.84
48035;BME280;33812;46.480;6.834;2023-05-12T14:59:46;93128.78;;;21.98;39.89
48035;BME280;33812;46.480;6.834;2023-05-12T15:03:51;93132.78;;;21.97;39.85
48035;BME280;33812;46.480;6.834;2023-05-12T15:07:54;93132.47;;;21.95;39.70
48035;BME280;33812;46.480;6.834;2023-05-12T15:11:55;93145.38;;;21.98;39.74
48035;BME280;33812;46.480;6.834;2023-05-12T15:15:58;93138.34;;;21.97;40.18
48035;BME280;33812;46.480;6.834;2023-05-12T15:20:00;93135.25;;;21.95;39.62
48035;BME280;33812;46.480;6.834;2023-05-12T15:24:03;93128.34;;;21.91;37.97
48035;BME280;33812;46.480;6.834;2023-05-12T15:28:05;93135.94;;;21.77;37.05
48035;BME280;33812;46.480;6.834;2023-05-12T15:32:08;93125.22;;;21.79;37.88
48035;BME280;33812;46.480;6.834;2023-05-12T15:36:10;93126.44;;;21.78;37.17
48035;BME280;33812;46.480;6.834;2023-05-12T15:40:12;93134.91;;;21.84;37.33
48035;BME280;33812;46.480;6.834;2023-05-12T15:44:14;93137.25;;;21.85;37.71
48035;BME280;33812;46.480;6.834;2023-05-12T15:48:17;93137.19;;;21.76;37.58
48035;BME280;33812;46.480;6.834;2023-05-12T15:52:19;93127.19;;;21.79;37.80
48035;BME280;33812;46.480;6.834;2023-05-12T15:56:21;93128.00;;;21.79;37.98
48035;BME280;33812;46.480;6.834;2023-05-12T16:00:23;93144.25;;;21.77;38.56
48035;BME280;33812;46.480;6.834;2023-05-12T16:04:26;93132.59;;;21.82;38.89
48035;BME280;33812;46.480;6.834;2023-05-12T16:08:29;93135.53;;;21.88;38.72
48035;BME280;33812;46.480;6.834;2023-05-12T16:12:33;93140.75;;;21.86;38.72
48035;BME280;33812;46.480;6.834;2023-05-12T16:16:35;93138.94;;;21.92;39.09
48035;BME280;33812;46.480;6.834;2023-05-12T16:20:38;93146.28;;;21.86;39.09
48035;BME280;33812;46.480;6.834;2023-05-12T16:24:41;93144.44;;;21.83;38.97
48035;BME280;33812;46.480;6.834;2023-05-12T16:28:43;93145.38;;;21.80;38.93
48035;BME280;33812;46.480;6.834;2023-05-12T16:32:44;93146.44;;;21.82;39.24
48035;BME280;33812;46.480;6.834;2023-05-12T16:36:48;93146.53;;;21.79;40.05
48035;BME280;33812;46.480;6.834;2023-05-12T16:40:49;93139.69;;;21.83;40.37
48035;BME280;33812;46.480;6.834;2023-05-12T16:44:52;93146.88;;;21.81;40.10
48035;BME280;33812;46.480;6.834;2023-05-12T16:48:54;93149.78;;;21.77;40.41
48035;BME280;33812;46.480;6.834;2023-05-12T16:52:57;93155.81;;;21.85;40.58
48035;BME280;33812;46.480;6.834;2023-05-12T16:56:59;93149.06;;;21.86;41.10
48035;BME280;33812;46.480;6.834;2023-05-12T17:01:02;93132.44;;;21.77;41.01
48035;BME280;33812;46.480;6.834;2023-05-12T17:05:05;93139.69;;;21.83;40.95
48035;BME280;33812;46.480;6.834;2023-05-12T17:09:08;93144.69;;;21.76;41.28
48035;BME280;33812;46.480;6.834;2023-05-12T17:13:10;93141.00;;;21.69;41.47
48035;BME280;33812;46.480;6.834;2023-05-12T17:17:12;93156.69;;;21.72;41.24
48035;BME280;33812;46.480;6.834;2023-05-12T17:21:14;93162.06;;;21.76;41.60
48035;BME280;33812;46.480;6.834;2023-05-12T17:29:19;93159.78;;;21.74;41.31
48035;BME280;33812;46.480;6.834;2023-05-12T17:33:20;93170.13;;;21.83;41.26
48035;BME280;33812;46.480;6.834;2023-05-12T17:37:23;93168.06;;;21.74;41.54
48035;BME280;33812;46.480;6.834;2023-05-12T17:41:26;93162.19;;;21.63;41.71
48035;BME280;33812;46.480;6.834;2023-05-12T17:45:28;93173.38;;;21.59;41.85
48035;BME280;33812;46.480;6.834;2023-05-12T17:49:30;93161.28;;;21.66;41.63
48035;BME280;33812;46.480;6.834;2023-05-12T17:53:33;93162.34;;;21.69;41.47
48035;BME280;33812;46.480;6.834;2023-05-12T17:57:36;93160.31;;;21.60;41.41
48035;BME280;33812;46.480;6.834;2023-05-12T18:01:39;93172.34;;;21.76;41.41
48035;BME280;33812;46.480;6.834;2023-05-12T18:05:42;93155.13;;;21.62;40.28
48035;BME280;33812;46.480;6.834;2023-05-12T18:09:43;93171.91;;;21.77;40.82
48035;BME280;33812;46.480;6.834;2023-05-12T18:13:49;93169.88;;;21.68;40.82
48035;BME280;33812;46.480;6.834;2023-05-12T18:17:51;93175.13;;;21.66;40.14
48035;BME280;33812;46.480;6.834;2023-05-12T18:21:54;93176.19;;;21.69;39.72
48035;BME280;33812;46.480;6.834;2023-05-12T18:25:55;93184.47;;;21.69;39.76
48035;BME280;33812;46.480;6.834;2023-05-12T18:29:58;93181.53;;;21.54;39.45
48035;BME280;33812;46.480;6.834;2023-05-12T18:34:01;93186.00;;;21.60;39.25
48035;BME280;33812;46.480;6.834;2023-05-12T18:38:02;93196.56;;;21.53;38.95
48035;BME280;33812;46.480;6.834;2023-05-12T18:42:04;93195.09;;;21.38;39.05
48035;BME280;33812;46.480;6.834;2023-05-12T18:46:07;93191.66;;;21.25;38.97
48035;BME280;33812;46.480;6.834;2023-05-12T18:50:09;93200.38;;;21.46;39.63
48035;BME280;33812;46.480;6.834;2023-05-12T18:54:11;93204.13;;;21.30;39.44
48035;BME280;33812;46.480;6.834;2023-05-12T18:58:13;93194.88;;;21.23;39.48
48035;BME280;33812;46.480;6.834;2023-05-12T19:02:21;93209.94;;;21.22;39.51
48035;BME280;33812;46.480;6.834;2023-05-12T19:06:27;93204.81;;;21.11;39.81
48035;BME280;33812;46.480;6.834;2023-05-12T19:10:30;93208.38;;;21.21;40.08
48035;BME280;33812;46.480;6.834;2023-05-12T19:14:31;93211.78;;;21.25;40.46
48035;BME280;33812;46.480;6.834;2023-05-12T19:18:37;93209.97;;;21.32;40.49
48035;BME280;33812;46.480;6.834;2023-05-12T19:22:39;93219.53;;;21.40;39.96
48035;BME280;33812;46.480;6.834;2023-05-12T19:26:43;93220.09;;;21.25;39.89
48035;BME280;33812;46.480;6.834;2023-05-12T19:30:45;93223.19;;;21.37;40.61
48035;BME280;33812;46.480;6.834;2023-05-12T19:34:53;93228.31;;;21.16;39.86
48035;BME280;33812;46.480;6.834;2023-05-12T19:38:55;93239.25;;;21.20;40.24
48035;BME280;33812;46.480;6.834;2023-05-12T19:42:58;93232.34;;;21.24;40.08
48035;BME280;33812;46.480;6.834;2023-05-12T19:47:01;93234.56;;;21.07;40.97
48035;BME280;33812;46.480;6.834;2023-05-12T19:51:05;93238.91;;;21.18;41.39
48035;BME280;33812;46.480;6.834;2023-05-12T19:55:08;93250.28;;;21.20;41.45
48035;BME280;33812;46.480;6.834;2023-05-12T19:59:11;93249.06;;;21.21;40.59
48035;BME280;33812;46.480;6.834;2023-05-12T20:03:14;93250.09;;;21.36;41.15
48035;BME280;33812;46.480;6.834;2023-05-12T20:07:18;93258.94;;;21.31;40.98
48035;BME280;33812;46.480;6.834;2023-05-12T20:11:20;93253.63;;;21.14;40.64
48035;BME280;33812;46.480;6.834;2023-05-12T20:15:21;93256.19;;;21.09;41.16
48035;BME280;33812;46.480;6.834;2023-05-12T20:19:23;93257.19;;;21.15;41.19
48035;BME280;33812;46.480;6.834;2023-05-12T20:23:28;93259.50;;;21.17;41.20
48035;BME280;33812;46.480;6.834;2023-05-12T20:27:30;93264.03;;;21.10;41.10
48035;BME280;33812;46.480;6.834;2023-05-12T20:31:32;93269.75;;;21.16;41.22
48035;BME280;33812;46.480;6.834;2023-05-12T20:35:34;93265.06;;;21.04;41.33
48035;BME280;33812;46.480;6.834;2023-05-12T20:39:37;93275.00;;;20.78;41.32
48035;BME280;33812;46.480;6.834;2023-05-12T20:43:39;93279.09;;;20.74;41.12
48035;BME280;33812;46.480;6.834;2023-05-12T20:47:41;93273.47;;;21.00;41.41
48035;BME280;33812;46.480;6.834;2023-05-12T20:51:43;93272.84;;;21.18;42.14
48035;BME280;33812;46.480;6.834;2023-05-12T20:55:46;93276.13;;;21.26;40.68
48035;BME280;33812;46.480;6.834;2023-05-12T20:59:48;93284.59;;;21.32;41.45
48035;BME280;33812;46.480;6.834;2023-05-12T21:03:51;93289.50;;;21.28;41.06
48035;BME280;33812;46.480;6.834;2023-05-12T21:07:53;93284.84;;;21.24;40.70
48035;BME280;33812;46.480;6.834;2023-05-12T21:11:56;93279.91;;;21.42;41.07
48035;BME280;33812;46.480;6.834;2023-05-12T21:15:58;93276.88;;;21.26;40.41
48035;BME280;33812;46.480;6.834;2023-05-12T21:20:00;93280.31;;;21.31;40.81
48035;BME280;33812;46.480;6.834;2023-05-12T21:24:02;93294.94;;;21.41;41.03
48035;BME280;33812;46.480;6.834;2023-05-12T21:28:06;93278.88;;;21.26;39.83
48035;BME280;33812;46.480;6.834;2023-05-12T21:32:08;93289.75;;;21.20;40.43
48035;BME280;33812;46.480;6.834;2023-05-12T21:36:09;93283.31;;;21.23;40.78
48035;BME280;33812;46.480;6.834;2023-05-12T21:40:12;93284.16;;;21.11;40.07
48035;BME280;33812;46.480;6.834;2023-05-12T21:44:15;93286.88;;;21.24;40.57
48035;BME280;33812;46.480;6.834;2023-05-12T21:48:17;93281.16;;;21.18;40.27